sensor_id;sensor_type;location;lat;lon;timestamp;temperature;humidity
47482;DHT22;33219;47.410;9.730;2022-10-16T00:00:50;13.10;99.90
47482;DHT22;33219;47.410;9.730;2022-10-16T00:03:17;13.10;99.90
47482;DHT22;33219;47.410;9.730;2022-10-16T00:05:45;13.10;99.90
47482;DHT22;33219;47.410;9.730;2022-10-16T00:08:12;13.10;99.90
47482;DHT22;33219;47.410;9.730;2022-10-16T00:10:40;13.10;99.90
47482;DHT22;33219;47.410;9.730;2022-10-16T00:13:08;13.20;99.90
47482;DHT22;33219;47.410;9.730;2022-10-16T00:15:36;13.20;99.90
47482;DHT22;33219;47.410;9.730;2022-10-16T00:18:06;13.20;99.90
47482;DHT22;33219;47.410;9.730;2022-10-16T00:20:34;13.20;99.90
47482;DHT22;33219;47.410;9.730;2022-10-16T00:23:04;13.20;99.90
47482;DHT22;33219;47.410;9.730;2022-10-16T00:25:32;13.20;99.90
47482;DHT22;33219;47.410;9.730;2022-10-16T00:28:01;13.20;99.90
47482;DHT22;33219;47.410;9.730;2022-10-16T00:30:28;13.20;99.90
47482;DHT22;33219;47.410;9.730;2022-10-16T00:32:56;13.20;99.90
47482;DHT22;33219;47.410;9.730;2022-10-16T00:35:24;13.20;99.90
47482;DHT22;33219;47.410;9.730;2022-10-16T00:37:51;13.20;99.90
47482;DHT22;33219;47.410;9.730;2022-10-16T00:40:19;13.20;99.90
47482;DHT22;33219;47.410;9.730;2022-10-16T00:42:46;13.20;99.90
47482;DHT22;33219;47.410;9.730;2022-10-16T00:45:14;13.20;99.90
47482;DHT22;33219;47.410;9.730;2022-10-16T00:47:43;13.20;99.90
47482;DHT22;33219;47.410;9.730;2022-10-16T00:50:27;13.20;99.90
47482;DHT22;33219;47.410;9.730;2022-10-16T00:52:55;13.10;99.90
47482;DHT22;33219;47.410;9.730;2022-10-16T00:55:23;13.10;99.90
47482;DHT22;33219;47.410;9.730;2022-10-16T00:57:52;13.10;99.90
47482;DHT22;33219;47.410;9.730;2022-10-16T01:00:22;13.10;99.90
47482;DHT22;33219;47.410;9.730;2022-10-16T01:02:56;13.10;99.90
47482;DHT22;33219;47.410;9.730;2022-10-16T01:05:44;13.10;99.90
47482;DHT22;33219;47.410;9.730;2022-10-16T01:08:12;13.30;99.90
47482;DHT22;33219;47.410;9.730;2022-10-16T01:10:57;13.20;99.90
47482;DHT22;33219;47.410;9.730;2022-10-16T01:13:36;13.30;99.90
47482;DHT22;33219;47.410;9.730;2022-10-16T01:16:15;13.30;99.90
47482;DHT22;33219;47.410;9.730;2022-10-16T01:18:46;13.30;99.90
47482;DHT22;33219;47.410;9.730;2022-10-16T01:21:22;13.30;99.90
47482;DHT22;33219;47.410;9.730;2022-10-16T01:26:57;13.30;99.90
47482;DHT22;33219;47.410;9.730;2022-10-16T01:29:27;13.30;99.90
47482;DHT22;33219;47.410;9.730;2022-10-16T01:31:59;13.30;99.90
47482;DHT22;33219;47.410;9.730;2022-10-16T01:34:35;13.30;99.90
47482;DHT22;33219;47.410;9.730;2022-10-16T01:37:10;13.20;99.90
47482;DHT22;33219;47.410;9.730;2022-10-16T01:39:39;13.20;99.90
47482;DHT22;33219;47.410;9.730;2022-10-16T01:42:21;13.20;99.90
47482;DHT22;33219;47.410;9.730;2022-10-16T01:44:47;13.20;99.90
47482;DHT22;33219;47.410;9.730;2022-10-16T01:47:16;13.20;99.90
47482;DHT22;33219;47.410;9.730;2022-10-16T01:49:45;13.20;99.90
47482;DHT22;33219;47.410;9.730;2022-10-16T01:52:15;13.20;99.90
47482;DHT22;33219;47.410;9.730;2022-10-16T01:54:45;13.20;99.90
47482;DHT22;33219;47.410;9.730;2022-10-16T01:57:14;13.20;99.90
47482;DHT22;33219;47.410;9.730;2022-10-16T01:59:46;13.20;99.90
47482;DHT22;33219;47.410;9.730;2022-10-16T02:02:15;13.20;99.90
47482;DHT22;33219;47.410;9.730;2022-10-16T02:04:47;13.20;99.90
47482;DHT22;33219;47.410;9.730;2022-10-16T02:07:15;13.20;99.90
47482;DHT22;33219;47.410;9.730;2022-10-16T02:09:43;13.20;99.90
47482;DHT22;33219;47.410;9.730;2022-10-16T02:12:28;13.20;99.90
47482;DHT22;33219;47.410;9.730;2022-10-16T02:14:56;13.20;99.90
47482;DHT22;33219;47.410;9.730;2022-10-16T02:17:24;13.20;99.90
47482;DHT22;33219;47.410;9.730;2022-10-16T02:19:54;13.20;99.90
47482;DHT22;33219;47.410;9.730;2022-10-16T02:22:27;13.20;99.90
47482;DHT22;33219;47.410;9.730;2022-10-16T02:25:23;13.20;99.90
47482;DHT22;33219;47.410;9.730;2022-10-16T02:28:06;13.20;99.90
47482;DHT22;33219;47.410;9.730;2022-10-16T02:30:42;13.20;99.90
47482;DHT22;33219;47.410;9.730;2022-10-16T02:33:09;13.20;99.90
47482;DHT22;33219;47.410;9.730;2022-10-16T02:35:38;13.20;99.90
47482;DHT22;33219;47.410;9.730;2022-10-16T02:38:06;13.10;99.90
47482;DHT22;33219;47.410;9.730;2022-10-16T02:40:35;13.10;99.90
47482;DHT22;33219;47.410;9.730;2022-10-16T02:43:04;13.10;99.90
47482;DHT22;33219;47.410;9.730;2022-10-16T02:45:32;13.00;99.90
47482;DHT22;33219;47.410;9.730;2022-10-16T02:48:00;13.00;99.90
47482;DHT22;33219;47.410;9.730;2022-10-16T02:50:27;13.00;99.90
47482;DHT22;33219;47.410;9.730;2022-10-16T02:52:55;12.90;99.90
47482;DHT22;33219;47.410;9.730;2022-10-16T02:55:23;13.00;99.90
47482;DHT22;33219;47.410;9.730;2022-10-16T02:57:50;12.90;99.90
47482;DHT22;33219;47.410;9.730;2022-10-16T03:00:20;12.90;99.90
47482;DHT22;33219;47.410;9.730;2022-10-16T03:02:47;12.90;99.90
47482;DHT22;33219;47.410;9.730;2022-10-16T03:05:15;12.90;99.90
47482;DHT22;33219;47.410;9.730;2022-10-16T03:07:43;12.90;99.90
47482;DHT22;33219;47.410;9.730;2022-10-16T03:10:11;12.90;99.90
47482;DHT22;33219;47.410;9.730;2022-10-16T03:12:40;12.90;99.90
47482;DHT22;33219;47.410;9.730;2022-10-16T03:15:08;12.90;99.90
47482;DHT22;33219;47.410;9.730;2022-10-16T03:17:35;12.80;99.90
47482;DHT22;33219;47.410;9.730;2022-10-16T03:20:03;12.80;99.90
47482;DHT22;33219;47.410;9.730;2022-10-16T03:22:31;12.70;99.90
47482;DHT22;33219;47.410;9.730;2022-10-16T03:24:59;12.70;99.90
47482;DHT22;33219;47.410;9.730;2022-10-16T03:27:27;12.70;99.90
47482;DHT22;33219;47.410;9.730;2022-10-16T03:29:54;12.60;99.90
47482;DHT22;33219;47.410;9.730;2022-10-16T03:32:22;12.60;99.90
47482;DHT22;33219;47.410;9.730;2022-10-16T03:34:51;12.50;99.90
47482;DHT22;33219;47.410;9.730;2022-10-16T03:37:23;12.50;99.90
47482;DHT22;33219;47.410;9.730;2022-10-16T03:39:51;12.60;99.90
47482;DHT22;33219;47.410;9.730;2022-10-16T03:42:19;12.50;99.90
47482;DHT22;33219;47.410;9.730;2022-10-16T03:44:47;12.50;99.90
47482;DHT22;33219;47.410;9.730;2022-10-16T03:47:14;12.50;99.90
47482;DHT22;33219;47.410;9.730;2022-10-16T03:49:44;12.40;99.90
47482;DHT22;33219;47.410;9.730;2022-10-16T03:52:11;12.50;99.90
47482;DHT22;33219;47.410;9.730;2022-10-16T03:54:39;12.50;99.90
47482;DHT22;33219;47.410;9.730;2022-10-16T03:57:06;12.50;99.90
47482;DHT22;33219;47.410;9.730;2022-10-16T03:59:34;12.60;99.90
47482;DHT22;33219;47.410;9.730;2022-10-16T04:02:02;12.60;99.90
47482;DHT22;33219;47.410;9.730;2022-10-16T04:04:29;12.70;99.90
47482;DHT22;33219;47.410;9.730;2022-10-16T04:06:57;12.70;99.90
47482;DHT22;33219;47.410;9.730;2022-10-16T04:09:24;12.70;99.90
47482;DHT22;33219;47.410;9.730;2022-10-16T04:11:52;12.70;99.90
47482;DHT22;33219;47.410;9.730;2022-10-16T04:14:20;12.70;99.90
47482;DHT22;33219;47.410;9.730;2022-10-16T04:16:47;12.80;99.90
47482;DHT22;33219;47.410;9.730;2022-10-16T04:19:15;12.80;99.90
47482;DHT22;33219;47.410;9.730;2022-10-16T04:21:42;12.80;99.90
47482;DHT22;33219;47.410;9.730;2022-10-16T04:24:10;12.80;99.90
47482;DHT22;33219;47.410;9.730;2022-10-16T04:26:38;12.70;99.90
47482;DHT22;33219;47.410;9.730;2022-10-16T04:29:05;12.70;99.90
47482;DHT22;33219;47.410;9.730;2022-10-16T04:31:33;12.80;99.90
47482;DHT22;33219;47.410;9.730;2022-10-16T04:34:01;12.80;99.90
47482;DHT22;33219;47.410;9.730;2022-10-16T04:36:29;12.80;99.90
47482;DHT22;33219;47.410;9.730;2022-10-16T04:38:57;12.80;99.90
47482;DHT22;33219;47.410;9.730;2022-10-16T04:41:24;12.80;99.90
47482;DHT22;33219;47.410;9.730;2022-10-16T04:43:52;12.90;99.90
47482;DHT22;33219;47.410;9.730;2022-10-16T04:46:20;12.90;99.90
47482;DHT22;33219;47.410;9.730;2022-10-16T04:48:47;12.90;99.90
47482;DHT22;33219;47.410;9.730;2022-10-16T04:51:15;12.90;99.90
47482;DHT22;33219;47.410;9.730;2022-10-16T04:53:42;12.80;99.90
47482;DHT22;33219;47.410;9.730;2022-10-16T04:56:10;12.80;99.90
47482;DHT22;33219;47.410;9.730;2022-10-16T04:58:38;12.70;99.90
47482;DHT22;33219;47.410;9.730;2022-10-16T05:01:05;12.60;99.90
47482;DHT22;33219;47.410;9.730;2022-10-16T05:03:33;12.70;99.90
47482;DHT22;33219;47.410;9.730;2022-10-16T05:06:01;12.60;99.90
47482;DHT22;33219;47.410;9.730;2022-10-16T05:08:30;12.60;99.90
47482;DHT22;33219;47.410;9.730;2022-10-16T05:10:57;12.50;99.90
47482;DHT22;33219;47.410;9.730;2022-10-16T05:13:25;12.50;99.90
47482;DHT22;33219;47.410;9.730;2022-10-16T05:15:53;12.50;99.90
47482;DHT22;33219;47.410;9.730;2022-10-16T05:18:20;12.50;99.90
47482;DHT22;33219;47.410;9.730;2022-10-16T05:20:48;12.50;99.90
47482;DHT22;33219;47.410;9.730;2022-10-16T05:23:15;12.50;99.90
47482;DHT22;33219;47.410;9.730;2022-10-16T05:25:43;12.60;99.90
47482;DHT22;33219;47.410;9.730;2022-10-16T05:28:10;12.50;99.90
47482;DHT22;33219;47.410;9.730;2022-10-16T05:30:38;12.60;99.90
47482;DHT22;33219;47.410;9.730;2022-10-16T05:33:06;12.70;99.90
47482;DHT22;33219;47.410;9.730;2022-10-16T05:35:34;12.90;99.90
47482;DHT22;33219;47.410;9.730;2022-10-16T05:38:01;13.00;99.90
47482;DHT22;33219;47.410;9.730;2022-10-16T05:40:29;13.10;99.90
47482;DHT22;33219;47.410;9.730;2022-10-16T05:42:56;13.20;99.90
47482;DHT22;33219;47.410;9.730;2022-10-16T05:45:24;13.30;99.90
47482;DHT22;33219;47.410;9.730;2022-10-16T05:47:51;13.30;99.90
47482;DHT22;33219;47.410;9.730;2022-10-16T05:50:19;13.30;99.90
47482;DHT22;33219;47.410;9.730;2022-10-16T05:52:47;13.30;99.90
47482;DHT22;33219;47.410;9.730;2022-10-16T05:55:14;13.20;99.90
47482;DHT22;33219;47.410;9.730;2022-10-16T05:57:42;13.20;99.90
47482;DHT22;33219;47.410;9.730;2022-10-16T06:00:10;13.10;99.90
47482;DHT22;33219;47.410;9.730;2022-10-16T06:02:38;13.00;99.90
47482;DHT22;33219;47.410;9.730;2022-10-16T06:05:06;12.90;99.90
47482;DHT22;33219;47.410;9.730;2022-10-16T06:07:36;12.90;99.90
47482;DHT22;33219;47.410;9.730;2022-10-16T06:10:05;12.90;99.90
47482;DHT22;33219;47.410;9.730;2022-10-16T06:12:33;12.90;99.90
47482;DHT22;33219;47.410;9.730;2022-10-16T06:15:00;12.90;99.90
47482;DHT22;33219;47.410;9.730;2022-10-16T06:17:28;12.90;99.90
47482;DHT22;33219;47.410;9.730;2022-10-16T06:19:55;13.00;99.90
47482;DHT22;33219;47.410;9.730;2022-10-16T06:22:23;13.00;99.90
47482;DHT22;33219;47.410;9.730;2022-10-16T06:24:50;13.00;99.90
47482;DHT22;33219;47.410;9.730;2022-10-16T06:27:18;13.00;99.90
47482;DHT22;33219;47.410;9.730;2022-10-16T06:29:47;13.00;99.90
47482;DHT22;33219;47.410;9.730;2022-10-16T06:32:14;13.00;99.90
47482;DHT22;33219;47.410;9.730;2022-10-16T06:34:42;13.00;99.90
47482;DHT22;33219;47.410;9.730;2022-10-16T06:37:09;13.10;99.90
47482;DHT22;33219;47.410;9.730;2022-10-16T06:39:37;13.10;99.90
47482;DHT22;33219;47.410;9.730;2022-10-16T06:42:05;13.20;99.90
47482;DHT22;33219;47.410;9.730;2022-10-16T06:44:33;13.30;99.90
47482;DHT22;33219;47.410;9.730;2022-10-16T06:47:00;13.40;99.90
47482;DHT22;33219;47.410;9.730;2022-10-16T06:49:28;13.40;99.90
47482;DHT22;33219;47.410;9.730;2022-10-16T06:51:55;13.50;99.90
47482;DHT22;33219;47.410;9.730;2022-10-16T06:54:23;13.60;99.90
47482;DHT22;33219;47.410;9.730;2022-10-16T06:56:51;13.60;99.90
47482;DHT22;33219;47.410;9.730;2022-10-16T06:59:21;13.70;99.90
47482;DHT22;33219;47.410;9.730;2022-10-16T07:01:49;13.90;99.90
47482;DHT22;33219;47.410;9.730;2022-10-16T07:04:17;14.10;99.90
47482;DHT22;33219;47.410;9.730;2022-10-16T07:06:44;14.20;99.90
47482;DHT22;33219;47.410;9.730;2022-10-16T07:09:12;14.40;99.90
47482;DHT22;33219;47.410;9.730;2022-10-16T07:11:40;14.60;99.90
47482;DHT22;33219;47.410;9.730;2022-10-16T07:14:16;14.90;99.90
47482;DHT22;33219;47.410;9.730;2022-10-16T07:16:44;15.40;99.90
47482;DHT22;33219;47.410;9.730;2022-10-16T07:19:12;16.30;99.90
47482;DHT22;33219;47.410;9.730;2022-10-16T07:21:41;17.20;99.90
47482;DHT22;33219;47.410;9.730;2022-10-16T07:24:14;18.40;99.90
47482;DHT22;33219;47.410;9.730;2022-10-16T07:26:44;19.10;99.90
47482;DHT22;33219;47.410;9.730;2022-10-16T07:29:15;20.10;99.90
47482;DHT22;33219;47.410;9.730;2022-10-16T07:31:43;21.20;99.90
47482;DHT22;33219;47.410;9.730;2022-10-16T07:34:12;21.80;99.90
47482;DHT22;33219;47.410;9.730;2022-10-16T07:36:40;22.60;99.00
47482;DHT22;33219;47.410;9.730;2022-10-16T07:39:08;22.40;99.00
47482;DHT22;33219;47.410;9.730;2022-10-16T07:41:36;22.70;98.20
47482;DHT22;33219;47.410;9.730;2022-10-16T07:44:04;22.20;99.40
47482;DHT22;33219;47.410;9.730;2022-10-16T07:46:32;21.90;99.40
47482;DHT22;33219;47.410;9.730;2022-10-16T07:49:02;21.80;99.90
47482;DHT22;33219;47.410;9.730;2022-10-16T07:51:30;21.90;99.40
47482;DHT22;33219;47.410;9.730;2022-10-16T07:53:58;22.60;99.00
47482;DHT22;33219;47.410;9.730;2022-10-16T07:56:25;23.10;97.50
47482;DHT22;33219;47.410;9.730;2022-10-16T07:58:53;22.50;98.50
47482;DHT22;33219;47.410;9.730;2022-10-16T08:01:20;21.80;98.90
47482;DHT22;33219;47.410;9.730;2022-10-16T08:03:50;20.70;99.90
47482;DHT22;33219;47.410;9.730;2022-10-16T08:06:20;20.30;99.90
47482;DHT22;33219;47.410;9.730;2022-10-16T08:08:48;20.20;99.90
47482;DHT22;33219;47.410;9.730;2022-10-16T08:11:16;19.80;99.90
47482;DHT22;33219;47.410;9.730;2022-10-16T08:13:45;19.40;99.90
47482;DHT22;33219;47.410;9.730;2022-10-16T08:16:13;19.20;99.90
47482;DHT22;33219;47.410;9.730;2022-10-16T08:18:44;19.40;99.90
47482;DHT22;33219;47.410;9.730;2022-10-16T08:21:18;19.60;99.90
47482;DHT22;33219;47.410;9.730;2022-10-16T08:23:46;19.70;99.90
47482;DHT22;33219;47.410;9.730;2022-10-16T08:26:13;19.60;99.90
47482;DHT22;33219;47.410;9.730;2022-10-16T08:28:41;19.70;99.90
47482;DHT22;33219;47.410;9.730;2022-10-16T08:31:14;19.60;99.90
47482;DHT22;33219;47.410;9.730;2022-10-16T08:33:43;20.10;99.90
47482;DHT22;33219;47.410;9.730;2022-10-16T08:36:14;20.80;99.90
47482;DHT22;33219;47.410;9.730;2022-10-16T08:38:43;21.00;99.90
47482;DHT22;33219;47.410;9.730;2022-10-16T08:46:34;20.80;99.90
47482;DHT22;33219;47.410;9.730;2022-10-16T08:48:53;20.50;99.90
47482;DHT22;33219;47.410;9.730;2022-10-16T08:51:35;20.50;99.90
47482;DHT22;33219;47.410;9.730;2022-10-16T08:53:56;20.70;99.90
47482;DHT22;33219;47.410;9.730;2022-10-16T08:56:25;21.10;99.90
47482;DHT22;33219;47.410;9.730;2022-10-16T08:58:54;21.20;99.90
47482;DHT22;33219;47.410;9.730;2022-10-16T09:01:23;21.20;99.80
47482;DHT22;33219;47.410;9.730;2022-10-16T09:09:11;21.40;99.50
47482;DHT22;33219;47.410;9.730;2022-10-16T09:14:43;21.00;99.20
47482;DHT22;33219;47.410;9.730;2022-10-16T09:22:47;21.50;98.80
47482;DHT22;33219;47.410;9.730;2022-10-16T09:25:20;21.60;99.10
47482;DHT22;33219;47.410;9.730;2022-10-16T09:27:51;21.20;99.90
47482;DHT22;33219;47.410;9.730;2022-10-16T09:30:20;21.10;99.80
47482;DHT22;33219;47.410;9.730;2022-10-16T09:32:50;21.10;98.90
47482;DHT22;33219;47.410;9.730;2022-10-16T09:35:35;21.20;98.90
47482;DHT22;33219;47.410;9.730;2022-10-16T09:38:01;21.20;98.80
47482;DHT22;33219;47.410;9.730;2022-10-16T09:40:34;21.30;99.20
47482;DHT22;33219;47.410;9.730;2022-10-16T09:45:42;21.30;98.60
47482;DHT22;33219;47.410;9.730;2022-10-16T09:48:13;21.30;98.90
47482;DHT22;33219;47.410;9.730;2022-10-16T09:50:41;21.40;99.60
47482;DHT22;33219;47.410;9.730;2022-10-16T09:53:11;21.50;99.20
47482;DHT22;33219;47.410;9.730;2022-10-16T09:55:53;21.40;98.00
47482;DHT22;33219;47.410;9.730;2022-10-16T09:58:23;21.40;97.40
47482;DHT22;33219;47.410;9.730;2022-10-16T10:00:53;21.50;97.60
47482;DHT22;33219;47.410;9.730;2022-10-16T10:03:38;21.60;97.80
47482;DHT22;33219;47.410;9.730;2022-10-16T10:06:34;21.50;97.70
47482;DHT22;33219;47.410;9.730;2022-10-16T10:09:17;21.30;97.70
47482;DHT22;33219;47.410;9.730;2022-10-16T10:12:05;21.40;98.10
47482;DHT22;33219;47.410;9.730;2022-10-16T10:14:38;21.50;98.40
47482;DHT22;33219;47.410;9.730;2022-10-16T10:17:10;21.60;98.60
47482;DHT22;33219;47.410;9.730;2022-10-16T10:22:43;21.60;98.00
47482;DHT22;33219;47.410;9.730;2022-10-16T10:33:57;21.90;96.50
47482;DHT22;33219;47.410;9.730;2022-10-16T10:39:08;21.90;96.60
47482;DHT22;33219;47.410;9.730;2022-10-16T10:44:38;21.90;96.80
47482;DHT22;33219;47.410;9.730;2022-10-16T10:47:27;21.90;96.60
47482;DHT22;33219;47.410;9.730;2022-10-16T10:52:48;22.00;96.40
47482;DHT22;33219;47.410;9.730;2022-10-16T10:55:28;22.00;96.90
47482;DHT22;33219;47.410;9.730;2022-10-16T11:00:51;22.00;97.10
47482;DHT22;33219;47.410;9.730;2022-10-16T11:06:21;22.10;96.60
47482;DHT22;33219;47.410;9.730;2022-10-16T11:08:51;22.00;96.50
47482;DHT22;33219;47.410;9.730;2022-10-16T11:11:45;22.00;96.80
47482;DHT22;33219;47.410;9.730;2022-10-16T11:14:20;22.00;96.90
47482;DHT22;33219;47.410;9.730;2022-10-16T11:17:02;22.00;96.40
47482;DHT22;33219;47.410;9.730;2022-10-16T11:19:54;21.90;95.90
47482;DHT22;33219;47.410;9.730;2022-10-16T11:22:28;21.90;96.60
47482;DHT22;33219;47.410;9.730;2022-10-16T11:28:07;21.80;96.20
47482;DHT22;33219;47.410;9.730;2022-10-16T11:30:39;21.80;95.70
47482;DHT22;33219;47.410;9.730;2022-10-16T11:35:39;21.80;95.30
47482;DHT22;33219;47.410;9.730;2022-10-16T11:38:13;21.80;95.50
47482;DHT22;33219;47.410;9.730;2022-10-16T11:40:41;21.90;96.00
47482;DHT22;33219;47.410;9.730;2022-10-16T11:43:17;21.90;96.20
47482;DHT22;33219;47.410;9.730;2022-10-16T11:45:51;21.90;96.70
47482;DHT22;33219;47.410;9.730;2022-10-16T11:51:36;22.00;97.30
47482;DHT22;33219;47.410;9.730;2022-10-16T11:54:24;22.00;98.10
47482;DHT22;33219;47.410;9.730;2022-10-16T11:56:53;22.00;97.80
47482;DHT22;33219;47.410;9.730;2022-10-16T11:59:35;22.00;96.80
47482;DHT22;33219;47.410;9.730;2022-10-16T12:04:47;22.00;97.20
47482;DHT22;33219;47.410;9.730;2022-10-16T12:07:20;22.00;97.20
47482;DHT22;33219;47.410;9.730;2022-10-16T12:09:48;22.00;97.20
47482;DHT22;33219;47.410;9.730;2022-10-16T12:17:37;21.90;97.10
47482;DHT22;33219;47.410;9.730;2022-10-16T12:23:03;21.90;97.00
47482;DHT22;33219;47.410;9.730;2022-10-16T12:25:36;21.90;97.20
47482;DHT22;33219;47.410;9.730;2022-10-16T12:28:20;21.90;97.10
47482;DHT22;33219;47.410;9.730;2022-10-16T12:30:57;21.90;97.10
47482;DHT22;33219;47.410;9.730;2022-10-16T12:33:33;21.90;97.10
47482;DHT22;33219;47.410;9.730;2022-10-16T12:36:15;21.90;97.00
47482;DHT22;33219;47.410;9.730;2022-10-16T12:38:53;21.80;96.70
47482;DHT22;33219;47.410;9.730;2022-10-16T12:41:33;21.80;96.80
47482;DHT22;33219;47.410;9.730;2022-10-16T12:44:02;21.90;97.00
47482;DHT22;33219;47.410;9.730;2022-10-16T12:49:06;22.00;96.80
47482;DHT22;33219;47.410;9.730;2022-10-16T12:51:36;22.10;96.90
47482;DHT22;33219;47.410;9.730;2022-10-16T12:57:07;22.00;96.40
47482;DHT22;33219;47.410;9.730;2022-10-16T13:00:00;22.00;96.70
47482;DHT22;33219;47.410;9.730;2022-10-16T13:16:49;21.90;99.90
47482;DHT22;33219;47.410;9.730;2022-10-16T13:22:17;22.00;99.90
47482;DHT22;33219;47.410;9.730;2022-10-16T13:27:45;22.00;99.90
47482;DHT22;33219;47.410;9.730;2022-10-16T13:30:26;21.90;99.90
47482;DHT22;33219;47.410;9.730;2022-10-16T13:33:02;21.90;99.90
47482;DHT22;33219;47.410;9.730;2022-10-16T13:35:31;21.90;99.90
47482;DHT22;33219;47.410;9.730;2022-10-16T13:38:13;21.80;99.90
47482;DHT22;33219;47.410;9.730;2022-10-16T13:40:56;21.80;99.90
47482;DHT22;33219;47.410;9.730;2022-10-16T13:43:38;21.70;99.90
47482;DHT22;33219;47.410;9.730;2022-10-16T13:46:17;21.70;99.90
47482;DHT22;33219;47.410;9.730;2022-10-16T13:48:56;21.60;99.90
47482;DHT22;33219;47.410;9.730;2022-10-16T13:51:16;21.60;99.90
47482;DHT22;33219;47.410;9.730;2022-10-16T13:53:45;21.60;99.90
47482;DHT22;33219;47.410;9.730;2022-10-16T13:56:15;21.60;99.90
47482;DHT22;33219;47.410;9.730;2022-10-16T13:58:43;21.60;99.90
47482;DHT22;33219;47.410;9.730;2022-10-16T14:01:25;21.50;99.90
47482;DHT22;33219;47.410;9.730;2022-10-16T14:04:00;21.50;99.90
47482;DHT22;33219;47.410;9.730;2022-10-16T14:06:24;21.50;99.90
47482;DHT22;33219;47.410;9.730;2022-10-16T14:08:59;21.50;99.90
47482;DHT22;33219;47.410;9.730;2022-10-16T14:11:23;21.40;99.90
47482;DHT22;33219;47.410;9.730;2022-10-16T14:13:52;21.40;99.90
47482;DHT22;33219;47.410;9.730;2022-10-16T14:16:27;21.40;99.90
47482;DHT22;33219;47.410;9.730;2022-10-16T14:18:55;21.50;99.90
47482;DHT22;33219;47.410;9.730;2022-10-16T14:21:21;21.50;99.90
47482;DHT22;33219;47.410;9.730;2022-10-16T14:23:49;21.50;99.90
47482;DHT22;33219;47.410;9.730;2022-10-16T14:26:20;21.50;99.90
47482;DHT22;33219;47.410;9.730;2022-10-16T14:28:49;21.50;99.90
47482;DHT22;33219;47.410;9.730;2022-10-16T14:33:48;21.60;99.90
47482;DHT22;33219;47.410;9.730;2022-10-16T14:36:16;21.60;99.90
47482;DHT22;33219;47.410;9.730;2022-10-16T14:39:03;21.60;99.90
47482;DHT22;33219;47.410;9.730;2022-10-16T14:41:32;21.50;99.90
47482;DHT22;33219;47.410;9.730;2022-10-16T14:44:04;21.50;99.90
47482;DHT22;33219;47.410;9.730;2022-10-16T14:46:35;21.50;99.90
47482;DHT22;33219;47.410;9.730;2022-10-16T14:51:34;21.50;99.90
47482;DHT22;33219;47.410;9.730;2022-10-16T14:54:02;21.40;99.90
47482;DHT22;33219;47.410;9.730;2022-10-16T14:56:33;21.40;99.90
47482;DHT22;33219;47.410;9.730;2022-10-16T14:59:00;21.40;99.90
47482;DHT22;33219;47.410;9.730;2022-10-16T15:01:28;21.40;99.90
47482;DHT22;33219;47.410;9.730;2022-10-16T15:03:55;21.30;99.90
47482;DHT22;33219;47.410;9.730;2022-10-16T15:06:23;21.30;99.90
47482;DHT22;33219;47.410;9.730;2022-10-16T15:08:50;21.20;99.90
47482;DHT22;33219;47.410;9.730;2022-10-16T15:11:19;21.20;99.90
47482;DHT22;33219;47.410;9.730;2022-10-16T15:13:46;21.10;99.90
47482;DHT22;33219;47.410;9.730;2022-10-16T15:16:15;21.00;99.90
47482;DHT22;33219;47.410;9.730;2022-10-16T15:18:43;21.00;99.90
47482;DHT22;33219;47.410;9.730;2022-10-16T15:21:28;20.90;99.90
47482;DHT22;33219;47.410;9.730;2022-10-16T15:23:57;20.90;99.90
47482;DHT22;33219;47.410;9.730;2022-10-16T15:26:29;20.80;99.90
47482;DHT22;33219;47.410;9.730;2022-10-16T15:28:56;20.70;99.90
47482;DHT22;33219;47.410;9.730;2022-10-16T15:31:24;20.70;99.90
47482;DHT22;33219;47.410;9.730;2022-10-16T15:33:53;20.60;99.90
47482;DHT22;33219;47.410;9.730;2022-10-16T15:36:28;20.50;99.90
47482;DHT22;33219;47.410;9.730;2022-10-16T15:38:56;20.40;99.90
47482;DHT22;33219;47.410;9.730;2022-10-16T15:41:23;20.30;99.90
47482;DHT22;33219;47.410;9.730;2022-10-16T15:43:51;20.20;99.90
47482;DHT22;33219;47.410;9.730;2022-10-16T15:46:21;20.10;99.90
47482;DHT22;33219;47.410;9.730;2022-10-16T15:48:50;20.00;99.90
47482;DHT22;33219;47.410;9.730;2022-10-16T15:51:20;19.80;99.90
47482;DHT22;33219;47.410;9.730;2022-10-16T15:53:48;19.60;99.90
47482;DHT22;33219;47.410;9.730;2022-10-16T15:56:17;19.50;99.90
47482;DHT22;33219;47.410;9.730;2022-10-16T15:58:45;19.40;99.90
47482;DHT22;33219;47.410;9.730;2022-10-16T16:01:12;19.30;99.90
47482;DHT22;33219;47.410;9.730;2022-10-16T16:03:45;19.20;99.90
47482;DHT22;33219;47.410;9.730;2022-10-16T16:06:12;19.00;99.90
47482;DHT22;33219;47.410;9.730;2022-10-16T16:08:40;18.90;99.90
47482;DHT22;33219;47.410;9.730;2022-10-16T16:11:10;18.80;99.90
47482;DHT22;33219;47.410;9.730;2022-10-16T16:13:38;18.70;99.90
47482;DHT22;33219;47.410;9.730;2022-10-16T16:16:08;18.60;99.90
47482;DHT22;33219;47.410;9.730;2022-10-16T16:18:37;18.50;99.90
47482;DHT22;33219;47.410;9.730;2022-10-16T16:21:05;18.30;99.90
47482;DHT22;33219;47.410;9.730;2022-10-16T16:23:33;18.20;99.90
47482;DHT22;33219;47.410;9.730;2022-10-16T16:26:13;18.10;99.90
47482;DHT22;33219;47.410;9.730;2022-10-16T16:28:42;17.90;99.90
47482;DHT22;33219;47.410;9.730;2022-10-16T16:31:09;17.80;99.90
47482;DHT22;33219;47.410;9.730;2022-10-16T16:33:37;17.70;99.90
47482;DHT22;33219;47.410;9.730;2022-10-16T16:36:06;17.60;99.90
47482;DHT22;33219;47.410;9.730;2022-10-16T16:38:34;17.50;99.90
47482;DHT22;33219;47.410;9.730;2022-10-16T16:41:19;17.40;99.90
47482;DHT22;33219;47.410;9.730;2022-10-16T16:43:47;17.40;99.90
47482;DHT22;33219;47.410;9.730;2022-10-16T16:46:15;17.30;99.90
47482;DHT22;33219;47.410;9.730;2022-10-16T16:48:43;17.20;99.90
47482;DHT22;33219;47.410;9.730;2022-10-16T16:51:16;17.20;99.90
47482;DHT22;33219;47.410;9.730;2022-10-16T16:53:50;17.10;99.90
47482;DHT22;33219;47.410;9.730;2022-10-16T16:56:20;17.20;99.90
47482;DHT22;33219;47.410;9.730;2022-10-16T16:58:50;17.10;99.90
47482;DHT22;33219;47.410;9.730;2022-10-16T17:01:18;17.00;99.90
47482;DHT22;33219;47.410;9.730;2022-10-16T17:03:47;17.00;99.90
47482;DHT22;33219;47.410;9.730;2022-10-16T17:06:16;17.00;99.90
47482;DHT22;33219;47.410;9.730;2022-10-16T17:08:45;16.90;99.90
47482;DHT22;33219;47.410;9.730;2022-10-16T17:11:21;16.90;99.90
47482;DHT22;33219;47.410;9.730;2022-10-16T17:13:50;16.80;99.90
47482;DHT22;33219;47.410;9.730;2022-10-16T17:16:21;16.90;99.90
47482;DHT22;33219;47.410;9.730;2022-10-16T17:18:49;16.80;99.90
47482;DHT22;33219;47.410;9.730;2022-10-16T17:21:17;16.70;99.90
47482;DHT22;33219;47.410;9.730;2022-10-16T17:23:46;16.70;99.90
47482;DHT22;33219;47.410;9.730;2022-10-16T17:26:17;16.60;99.90
47482;DHT22;33219;47.410;9.730;2022-10-16T17:28:45;16.70;99.90
47482;DHT22;33219;47.410;9.730;2022-10-16T17:31:22;16.60;99.90